createdAt,value
2022-07-29T00:02:08.752Z,51.63
2022-07-29T00:04:36.492Z,50.78
2022-07-29T00:07:04.051Z,49.88
2022-07-29T00:09:30.965Z,49.99
2022-07-29T00:12:00.378Z,51.09
2022-07-29T00:14:27.611Z,50.08
2022-07-29T00:16:54.337Z,51.74
2022-07-29T00:19:20.985Z,50.54
2022-07-29T00:21:48.646Z,50.57
2022-07-29T00:24:15.540Z,50.54
2022-07-29T00:26:42.296Z,51.79
2022-07-29T00:31:56.043Z,52.63
2022-07-29T00:34:41.278Z,51.99
2022-07-29T00:37:08.046Z,52.54
2022-07-29T00:39:34.744Z,52.46
2022-07-29T00:42:04.753Z,52.07
2022-07-29T00:44:31.416Z,51.76
2022-07-29T00:46:58.096Z,52.43
2022-07-29T00:49:24.851Z,52.13
2022-07-29T00:51:51.615Z,52.49
2022-07-29T00:54:18.898Z,51.70
2022-07-29T00:56:45.790Z,51.68
2022-07-29T00:59:12.551Z,52.19
2022-07-29T01:01:39.205Z,52.77
2022-07-29T01:04:06.921Z,52.94
2022-07-29T01:06:34.593Z,52.92
2022-07-29T01:09:01.398Z,53.15
2022-07-29T01:11:28.494Z,52.75
2022-07-29T01:13:55.207Z,53.28
2022-07-29T01:16:33.227Z,53.43
2022-07-29T01:19:09.083Z,52.46
2022-07-29T01:22:28.527Z,53.46
2022-07-29T01:25:53.199Z,52.99
2022-07-29T01:28:49.317Z,53.62
2022-07-29T01:31:24.964Z,52.92
2022-07-29T01:33:58.965Z,53.53
2022-07-29T01:36:50.626Z,53.18
2022-07-29T01:39:26.423Z,54.21
2022-07-29T01:42:18.106Z,53.47
2022-07-29T01:45:12.662Z,53.45
2022-07-29T01:47:59.745Z,54.28
2022-07-29T01:50:32.197Z,54.11
2022-07-29T01:53:01.967Z,53.94
2022-07-29T01:55:38.911Z,53.97
2022-07-29T01:58:10.027Z,54.37
2022-07-29T02:00:37.222Z,54.44
2022-07-29T02:03:09.128Z,54.65
2022-07-29T02:05:37.053Z,55.08
2022-07-29T02:08:05.586Z,54.66
2022-07-29T02:10:34.307Z,54.83
2022-07-29T02:13:02.079Z,54.99
2022-07-29T02:15:30.689Z,55.23
2022-07-29T02:18:09.051Z,54.54
2022-07-29T02:20:36.315Z,54.77
2022-07-29T02:23:03.550Z,55.03
2022-07-29T02:25:36.931Z,55.18
2022-07-29T02:28:06.830Z,55.85
2022-07-29T02:30:34.223Z,55.19
2022-07-29T02:33:01.638Z,54.80
2022-07-29T02:35:28.380Z,55.07
2022-07-29T02:38:20.444Z,55.68
2022-07-29T02:40:47.696Z,54.99
2022-07-29T02:43:14.586Z,55.15
2022-07-29T02:45:41.342Z,55.63
2022-07-29T02:48:16.031Z,55.45
2022-07-29T02:50:50.614Z,55.93
2022-07-29T02:53:20.286Z,56.39
2022-07-29T02:55:50.549Z,56.05
2022-07-29T02:58:24.105Z,56.95
2022-07-29T03:00:52.735Z,56.39
2022-07-29T03:03:20.140Z,55.83
2022-07-29T03:05:46.780Z,56.59
2022-07-29T03:08:14.002Z,56.80
2022-07-29T03:10:43.326Z,56.52
2022-07-29T03:13:10.994Z,56.35
2022-07-29T03:15:38.197Z,57.70
2022-07-29T03:18:05.046Z,56.77
2022-07-29T03:20:31.686Z,56.95
2022-07-29T03:22:58.315Z,56.96
2022-07-29T03:25:24.886Z,57.52
2022-07-29T03:27:51.469Z,57.29
2022-07-29T03:30:21.855Z,57.24
2022-07-29T03:32:48.755Z,57.88
2022-07-29T03:35:17.609Z,58.07
2022-07-29T03:37:45.475Z,57.78
2022-07-29T03:40:18.538Z,57.73
2022-07-29T03:42:45.832Z,57.71
2022-07-29T03:45:16.962Z,57.39
2022-07-29T03:47:52.882Z,58.06
2022-07-29T03:50:22.580Z,58.57
2022-07-29T03:52:49.653Z,57.97
2022-07-29T03:55:16.704Z,58.57
2022-07-29T03:57:43.963Z,58.49
2022-07-29T04:00:11.337Z,57.85
2022-07-29T04:02:39.357Z,58.41
2022-07-29T04:05:06.331Z,58.46
2022-07-29T04:07:32.976Z,58.45
2022-07-29T04:09:59.509Z,58.56
2022-07-29T04:12:26.140Z,58.83
2022-07-29T04:14:52.826Z,58.75
2022-07-29T04:17:19.398Z,59.14
2022-07-29T04:19:46.274Z,59.43
2022-07-29T04:22:12.844Z,58.98
2022-07-29T04:24:42.848Z,59.22
2022-07-29T04:27:10.919Z,60.00
2022-07-29T04:29:37.517Z,60.19
2022-07-29T04:32:23.954Z,59.29
2022-07-29T04:34:50.657Z,59.41
2022-07-29T04:37:17.234Z,59.51
2022-07-29T04:39:44.038Z,60.06
2022-07-29T04:42:10.687Z,59.28
2022-07-29T04:44:39.713Z,59.46
2022-07-29T04:47:09.956Z,60.15
2022-07-29T04:49:39.245Z,60.54
2022-07-29T04:52:06.872Z,60.15
2022-07-29T04:54:34.226Z,60.24
2022-07-29T04:57:00.778Z,60.45
2022-07-29T04:59:27.789Z,60.87
2022-07-29T05:01:54.496Z,59.98
2022-07-29T05:04:21.346Z,59.85
2022-07-29T05:06:48.244Z,59.40
2022-07-29T05:09:14.977Z,59.45
2022-07-29T05:11:41.556Z,60.14
2022-07-29T05:14:08.137Z,60.13
2022-07-29T05:16:34.767Z,59.53
2022-07-29T05:19:01.403Z,60.04
2022-07-29T05:21:28.056Z,59.55
2022-07-29T05:23:54.634Z,59.81
2022-07-29T05:26:21.292Z,59.93
2022-07-29T05:28:47.869Z,59.55
2022-07-29T05:31:15.815Z,59.89
2022-07-29T05:33:42.823Z,59.51
2022-07-29T05:36:09.432Z,59.53
2022-07-29T05:38:37.035Z,59.97
2022-07-29T05:41:04.073Z,59.94
2022-07-29T05:43:30.773Z,59.43
2022-07-29T05:45:57.873Z,59.55
2022-07-29T05:48:24.932Z,59.98
2022-07-29T05:50:51.474Z,60.01
2022-07-29T05:53:19.372Z,60.54
2022-07-29T05:55:48.072Z,59.89
2022-07-29T05:58:14.833Z,59.70
2022-07-29T06:00:41.686Z,59.27
2022-07-29T06:03:08.293Z,59.56
2022-07-29T06:05:35.103Z,59.05
2022-07-29T06:08:01.858Z,58.51
2022-07-29T06:10:28.485Z,58.42
2022-07-29T06:12:55.072Z,59.09
2022-07-29T06:15:21.804Z,59.30
2022-07-29T06:18:00.354Z,59.18
2022-07-29T06:20:30.980Z,59.17
2022-07-29T06:22:58.209Z,59.18
2022-07-29T06:25:24.872Z,59.20
2022-07-29T06:27:51.454Z,58.90
2022-07-29T06:30:18.157Z,58.79
2022-07-29T06:32:45.037Z,59.69
2022-07-29T06:35:38.989Z,58.67
2022-07-29T06:37:59.802Z,58.12
2022-07-29T06:40:45.809Z,58.30
2022-07-29T06:43:12.526Z,58.17
2022-07-29T06:45:42.441Z,57.92
2022-07-29T06:48:09.959Z,58.05
2022-07-29T06:50:36.553Z,58.43
2022-07-29T06:53:03.596Z,57.14
2022-07-29T06:55:30.985Z,57.32
2022-07-29T06:57:57.938Z,57.02
2022-07-29T07:00:24.725Z,56.99
2022-07-29T07:02:51.419Z,56.45
2022-07-29T07:05:18.099Z,57.03
2022-07-29T07:07:44.736Z,56.34
2022-07-29T07:10:11.304Z,55.88
2022-07-29T07:12:38.037Z,56.07
2022-07-29T07:15:05.263Z,54.76
2022-07-29T07:17:31.876Z,55.53
2022-07-29T07:19:58.523Z,56.06
2022-07-29T07:22:25.131Z,54.17
2022-07-29T07:24:51.683Z,54.51
2022-07-29T07:27:18.476Z,54.20
2022-07-29T07:29:45.168Z,54.23
2022-07-29T07:32:12.040Z,54.19
2022-07-29T07:34:39.155Z,53.52
2022-07-29T07:37:06.515Z,53.73
2022-07-29T07:39:33.248Z,54.60
2022-07-29T07:42:00.045Z,53.56
2022-07-29T07:44:26.733Z,53.18
2022-07-29T07:46:53.575Z,54.40
2022-07-29T07:49:21.739Z,52.68
2022-07-29T07:51:50.522Z,54.02
2022-07-29T07:54:18.609Z,53.53
2022-07-29T07:56:50.791Z,53.91
2022-07-29T07:59:24.323Z,54.96
2022-07-29T08:01:56.357Z,54.09
2022-07-29T08:04:28.046Z,55.36
2022-07-29T08:06:57.131Z,55.47
2022-07-29T08:09:29.696Z,57.27
2022-07-29T08:12:03.414Z,56.43
2022-07-29T08:14:30.649Z,56.67
2022-07-29T08:16:57.451Z,55.70
2022-07-29T08:19:24.455Z,56.79
2022-07-29T08:21:51.153Z,56.77
2022-07-29T08:24:36.884Z,55.77
2022-07-29T08:27:03.635Z,57.97
2022-07-29T08:29:30.241Z,58.03
2022-07-29T08:31:57.124Z,57.03
2022-07-29T08:34:28.004Z,55.77
2022-07-29T08:36:54.790Z,56.05
2022-07-29T08:39:21.412Z,58.57
2022-07-29T08:41:57.200Z,57.45
2022-07-29T08:44:30.721Z,58.22
2022-07-29T08:46:57.690Z,57.53
2022-07-29T08:49:24.323Z,57.11
2022-07-29T08:51:51.367Z,56.92
2022-07-29T08:54:18.829Z,56.64
2022-07-29T08:56:46.615Z,57.15
2022-07-29T08:59:14.141Z,57.30
2022-07-29T09:01:42.745Z,57.47
2022-07-29T09:04:12.763Z,58.36
2022-07-29T09:06:45.659Z,57.63
2022-07-29T09:09:13.020Z,57.94
2022-07-29T09:11:39.687Z,57.98
2022-07-29T09:14:06.848Z,57.10
2022-07-29T09:17:06.867Z,57.67
2022-07-29T09:19:36.085Z,56.31
2022-07-29T09:22:06.682Z,56.31
2022-07-29T09:24:51.760Z,56.06
2022-07-29T09:27:22.829Z,55.96
2022-07-29T09:30:02.985Z,56.25
2022-07-29T09:32:30.745Z,56.09
2022-07-29T09:35:22.448Z,55.54
2022-07-29T09:37:49.513Z,54.89
2022-07-29T09:40:18.343Z,55.43
2022-07-29T09:42:45.419Z,53.82
2022-07-29T09:45:12.920Z,53.41
2022-07-29T09:47:46.742Z,52.72
2022-07-29T09:50:13.943Z,53.00
2022-07-29T09:52:47.014Z,52.42
2022-07-29T09:55:18.424Z,53.11
2022-07-29T09:57:47.686Z,52.59
2022-07-29T10:00:17.009Z,52.21
2022-07-29T10:02:45.448Z,51.62
2022-07-29T10:05:26.825Z,50.67
2022-07-29T10:08:03.338Z,51.12
2022-07-29T10:10:35.354Z,51.45
2022-07-29T10:13:08.012Z,51.35
2022-07-29T10:15:41.970Z,50.11
2022-07-29T10:18:09.768Z,49.65
2022-07-29T10:20:37.057Z,49.94
2022-07-29T10:23:04.334Z,49.68
2022-07-29T10:25:31.562Z,49.16
2022-07-29T10:27:58.540Z,48.42
2022-07-29T10:30:26.410Z,48.27
2022-07-29T10:33:07.958Z,48.26
2022-07-29T10:36:02.429Z,49.01
2022-07-29T10:38:56.937Z,49.09
2022-07-29T10:41:44.688Z,48.18
2022-07-29T10:44:23.230Z,48.52
2022-07-29T10:46:51.799Z,47.44
2022-07-29T10:49:25.390Z,47.13
2022-07-29T10:52:00.316Z,48.42
2022-07-29T10:54:46.148Z,46.04
2022-07-29T10:57:52.687Z,47.64
2022-07-29T11:00:28.920Z,47.55
2022-07-29T11:02:57.720Z,46.31
2022-07-29T11:05:32.204Z,45.47
2022-07-29T11:08:34.016Z,44.20
2022-07-29T11:11:44.158Z,45.22
2022-07-29T11:14:18.903Z,44.30
2022-07-29T11:17:05.992Z,43.48
2022-07-29T11:19:33.891Z,42.98
2022-07-29T11:22:02.533Z,43.01
2022-07-29T11:24:32.505Z,43.03
2022-07-29T11:27:09.015Z,42.64
2022-07-29T11:29:40.626Z,43.00
2022-07-29T11:32:22.789Z,41.91
2022-07-29T11:34:50.453Z,42.75
2022-07-29T11:37:28.117Z,42.05
2022-07-29T11:40:16.785Z,42.60
2022-07-29T11:42:46.665Z,41.91
2022-07-29T11:45:42.497Z,42.45
2022-07-29T11:48:28.406Z,42.21
2022-07-29T11:50:52.044Z,42.25
2022-07-29T11:53:19.497Z,41.40
2022-07-29T11:55:51.330Z,41.90
2022-07-29T11:58:25.069Z,42.38
2022-07-29T12:00:53.001Z,40.86
2022-07-29T12:03:34.887Z,41.21
2022-07-29T12:06:21.531Z,40.35
2022-07-29T12:08:48.406Z,40.83
2022-07-29T12:11:23.291Z,40.57
2022-07-29T12:13:54.285Z,39.46
2022-07-29T12:16:26.068Z,40.11
2022-07-29T12:19:00.700Z,39.50
2022-07-29T12:21:29.940Z,38.64
2022-07-29T12:24:04.833Z,38.10
2022-07-29T12:26:35.705Z,39.07
2022-07-29T12:29:03.423Z,38.02
2022-07-29T12:31:43.961Z,36.87
2022-07-29T12:34:12.849Z,37.81
2022-07-29T12:36:39.451Z,37.38
2022-07-29T12:39:06.141Z,37.55
2022-07-29T12:41:36.878Z,38.18
2022-07-29T12:44:03.622Z,39.29
2022-07-29T12:46:30.322Z,38.55
2022-07-29T12:48:57.890Z,38.83
2022-07-29T12:51:32.620Z,37.55
2022-07-29T12:54:14.602Z,38.07
2022-07-29T12:56:44.419Z,37.45
2022-07-29T12:59:19.590Z,37.34
2022-07-29T13:01:49.597Z,36.80
2022-07-29T13:04:46.152Z,37.15
2022-07-29T13:07:15.228Z,38.04
2022-07-29T13:09:43.880Z,35.37
2022-07-29T13:12:12.433Z,35.59
2022-07-29T13:14:41.975Z,35.72
2022-07-29T13:17:13.009Z,35.24
2022-07-29T13:19:41.848Z,35.60
2022-07-29T13:22:16.648Z,35.04
2022-07-29T13:24:59.424Z,34.66
2022-07-29T13:27:31.136Z,35.41
2022-07-29T13:29:59.878Z,35.46
2022-07-29T13:32:29.084Z,35.21
2022-07-29T13:35:01.745Z,35.58
2022-07-29T13:37:35.904Z,35.96
2022-07-29T13:40:04.636Z,35.07
2022-07-29T13:42:31.625Z,34.11
2022-07-29T13:44:58.642Z,35.27
2022-07-29T13:47:32.606Z,35.66
2022-07-29T13:50:00.826Z,34.44
2022-07-29T13:52:27.466Z,34.36
2022-07-29T13:54:54.067Z,34.21
2022-07-29T13:57:20.681Z,34.52
2022-07-29T13:59:51.867Z,34.80
2022-07-29T14:02:20.424Z,34.97
2022-07-29T14:04:47.127Z,34.42
2022-07-29T14:07:16.236Z,35.31
2022-07-29T14:09:43.296Z,34.99
2022-07-29T14:12:10.268Z,34.95
2022-07-29T14:14:37.804Z,34.94
2022-07-29T14:17:07.157Z,35.64
2022-07-29T14:19:36.802Z,35.20
2022-07-29T14:22:05.079Z,34.44
2022-07-29T14:24:31.691Z,34.59
2022-07-29T14:26:59.231Z,35.76
2022-07-29T14:29:37.651Z,35.58
2022-07-29T14:32:09.219Z,34.65
2022-07-29T14:34:42.997Z,33.79
2022-07-29T14:37:09.600Z,34.29
2022-07-29T14:39:43.426Z,34.22
2022-07-29T14:42:12.841Z,34.44
2022-07-29T14:44:40.694Z,34.86
2022-07-29T14:47:08.339Z,34.64
2022-07-29T14:49:35.832Z,34.34
2022-07-29T14:52:02.656Z,35.00
2022-07-29T14:54:29.360Z,35.47
2022-07-29T14:56:58.624Z,34.71
2022-07-29T14:59:26.201Z,34.53
2022-07-29T15:01:52.909Z,35.16
2022-07-29T15:04:19.649Z,33.98
2022-07-29T15:06:46.432Z,33.66
2022-07-29T15:09:13.003Z,35.53
2022-07-29T15:11:39.644Z,33.83
2022-07-29T15:14:07.004Z,34.15
2022-07-29T15:16:34.062Z,35.21
2022-07-29T15:19:01.163Z,34.10
2022-07-29T15:21:28.150Z,34.27
2022-07-29T15:23:54.922Z,34.11
2022-07-29T15:26:21.516Z,34.28
2022-07-29T15:28:49.059Z,33.53
2022-07-29T15:31:15.809Z,33.59
2022-07-29T15:33:42.454Z,32.76
2022-07-29T15:36:09.371Z,33.58
2022-07-29T15:38:36.020Z,33.87
2022-07-29T15:41:08.932Z,33.94
2022-07-29T15:43:38.501Z,32.75
2022-07-29T15:46:23.919Z,33.33
2022-07-29T15:48:50.649Z,34.22
2022-07-29T15:51:17.346Z,33.63
2022-07-29T15:53:43.925Z,34.05
2022-07-29T15:56:20.573Z,34.60
2022-07-29T15:58:47.216Z,34.36
2022-07-29T16:01:13.856Z,33.90
2022-07-29T16:03:45.733Z,33.19
2022-07-29T16:06:18.351Z,33.58
2022-07-29T16:09:08.322Z,33.55
2022-07-29T16:11:39.623Z,33.49
2022-07-29T16:14:20.690Z,34.72
2022-07-29T16:17:15.337Z,34.11
2022-07-29T16:19:54.240Z,34.43
2022-07-29T16:22:53.327Z,34.61
2022-07-29T16:25:57.363Z,34.71
2022-07-29T16:28:46.317Z,34.53
2022-07-29T16:31:26.814Z,35.46
2022-07-29T16:34:07.380Z,35.25
2022-07-29T16:36:42.686Z,35.16
2022-07-29T16:39:23.802Z,35.61
2022-07-29T16:45:00.700Z,35.06
2022-07-29T16:50:22.431Z,35.68
2022-07-29T16:53:11.873Z,36.72
2022-07-29T16:55:49.952Z,35.31
2022-07-29T16:58:30.855Z,35.83
2022-07-29T17:01:16.643Z,36.53
2022-07-29T17:04:13.707Z,36.50
2022-07-29T17:06:53.689Z,36.82
2022-07-29T17:10:00.632Z,36.95
2022-07-29T17:12:39.937Z,36.51
2022-07-29T17:15:16.837Z,36.79
2022-07-29T17:17:58.089Z,37.90
2022-07-29T17:20:30.050Z,37.74
2022-07-29T17:22:56.689Z,38.19
2022-07-29T17:25:23.497Z,37.72
2022-07-29T17:27:51.366Z,37.80
2022-07-29T17:30:18.412Z,37.91
2022-07-29T17:32:45.064Z,38.83
2022-07-29T17:35:30.071Z,40.13
2022-07-29T17:37:56.652Z,40.08
2022-07-29T17:40:23.462Z,40.72
2022-07-29T17:42:55.270Z,42.52
2022-07-29T17:45:21.854Z,45.47
2022-07-29T17:47:48.475Z,49.50
2022-07-29T17:50:15.091Z,51.74
2022-07-29T17:52:41.885Z,53.59
2022-07-29T17:55:10.352Z,58.17
2022-07-29T17:57:37.018Z,63.26
2022-07-29T18:00:05.448Z,65.87
2022-07-29T18:02:37.683Z,67.92
2022-07-29T18:05:05.422Z,71.09
2022-07-29T18:07:32.089Z,73.61
2022-07-29T18:10:00.560Z,77.68
2022-07-29T18:12:28.179Z,80.02
2022-07-29T18:14:54.749Z,81.99
2022-07-29T18:17:21.361Z,82.57
2022-07-29T18:20:01.211Z,84.08
2022-07-29T18:22:27.847Z,85.00
2022-07-29T18:24:54.514Z,86.66
2022-07-29T18:27:21.107Z,87.56
2022-07-29T18:29:51.158Z,88.10
2022-07-29T18:32:17.845Z,88.24
2022-07-29T18:34:47.269Z,90.04
2022-07-29T18:37:13.856Z,91.61
2022-07-29T18:39:40.543Z,92.13
2022-07-29T18:42:07.905Z,94.26
2022-07-29T18:44:34.810Z,94.41
2022-07-29T18:47:11.376Z,96.58
2022-07-29T18:49:38.671Z,98.43
2022-07-29T18:52:05.592Z,98.98
2022-07-29T18:54:32.208Z,100.00
2022-07-29T18:56:59.095Z,99.52
2022-07-29T18:59:25.919Z,100.00
2022-07-29T19:01:53.105Z,99.32
2022-07-29T19:04:19.826Z,99.60
2022-07-29T19:06:46.413Z,99.13
2022-07-29T19:09:13.212Z,99.58
2022-07-29T19:11:39.918Z,100.00
2022-07-29T19:14:07.127Z,100.00
2022-07-29T19:16:33.858Z,100.00
2022-07-29T19:19:04.033Z,100.00
2022-07-29T19:21:30.741Z,100.00
2022-07-29T19:24:05.203Z,100.00
2022-07-29T19:26:36.836Z,100.00
2022-07-29T19:29:03.916Z,99.43
2022-07-29T19:31:30.787Z,99.59
2022-07-29T19:33:57.478Z,99.94
2022-07-29T19:36:26.739Z,100.00
2022-07-29T19:38:53.310Z,98.52
2022-07-29T19:41:20.111Z,97.43
2022-07-29T19:43:50.753Z,97.47
2022-07-29T19:46:21.016Z,99.16
2022-07-29T19:48:48.035Z,100.00
2022-07-29T19:51:14.684Z,100.00
2022-07-29T19:53:41.421Z,100.00
2022-07-29T19:56:09.016Z,100.00
2022-07-29T19:58:36.190Z,100.00
2022-07-29T20:01:10.506Z,100.00
2022-07-29T20:03:44.490Z,100.00
2022-07-29T20:06:11.053Z,100.00
2022-07-29T20:08:37.677Z,100.00
2022-07-29T20:11:04.837Z,100.00
2022-07-29T20:13:33.224Z,100.00
2022-07-29T20:16:05.809Z,100.00
2022-07-29T20:18:32.744Z,100.00
2022-07-29T20:21:01.459Z,100.00
2022-07-29T20:23:28.088Z,100.00
2022-07-29T20:26:00.033Z,100.00
2022-07-29T20:28:26.618Z,100.00
2022-07-29T20:30:53.317Z,100.00
2022-07-29T20:33:19.923Z,100.00
2022-07-29T20:35:47.447Z,100.00
2022-07-29T20:38:18.412Z,100.00
2022-07-29T20:40:46.178Z,100.00
2022-07-29T20:43:12.775Z,100.00
2022-07-29T20:45:39.747Z,100.00
2022-07-29T20:48:06.979Z,100.00
2022-07-29T20:50:37.873Z,100.00
2022-07-29T20:53:04.421Z,100.00
2022-07-29T20:55:32.211Z,100.00
2022-07-29T20:57:59.023Z,99.76
2022-07-29T21:00:25.643Z,100.00
2022-07-29T21:02:52.335Z,100.00
2022-07-29T21:05:19.071Z,100.00
2022-07-29T21:07:45.615Z,100.00
2022-07-29T21:10:18.438Z,100.00
2022-07-29T21:12:48.656Z,100.00
2022-07-29T21:15:15.328Z,100.00
2022-07-29T21:17:48.590Z,100.00
2022-07-29T21:20:17.251Z,100.00
2022-07-29T21:22:44.278Z,100.00
2022-07-29T21:25:11.388Z,100.00
2022-07-29T21:27:56.676Z,100.00
2022-07-29T21:30:23.285Z,100.00
2022-07-29T21:32:49.992Z,100.00
2022-07-29T21:35:35.716Z,100.00
2022-07-29T21:38:03.192Z,100.00
2022-07-29T21:40:30.588Z,100.00
2022-07-29T21:42:57.231Z,100.00
2022-07-29T21:45:24.047Z,100.00
2022-07-29T21:47:50.674Z,100.00
2022-07-29T21:50:17.442Z,100.00
2022-07-29T21:52:44.080Z,100.00
2022-07-29T21:55:11.611Z,100.00
2022-07-29T21:57:38.353Z,98.70
2022-07-29T22:00:06.694Z,99.47
2022-07-29T22:02:33.458Z,99.08
2022-07-29T22:05:00.095Z,100.00
2022-07-29T22:07:54.719Z,99.18
2022-07-29T22:10:17.310Z,96.21
2022-07-29T22:12:45.577Z,96.73
2022-07-29T22:15:12.417Z,99.54
2022-07-29T22:17:40.950Z,100.00
2022-07-29T22:20:08.180Z,100.00
2022-07-29T22:22:35.302Z,100.00
2022-07-29T22:25:02.598Z,99.29
2022-07-29T22:27:29.172Z,100.00
2022-07-29T22:29:58.470Z,100.00
2022-07-29T22:32:25.230Z,100.00
2022-07-29T22:34:51.993Z,100.00
2022-07-29T22:37:18.753Z,100.00
2022-07-29T22:39:45.361Z,100.00
2022-07-29T22:42:11.898Z,100.00
2022-07-29T22:44:38.596Z,100.00
2022-07-29T22:47:05.413Z,99.97
2022-07-29T22:49:32.017Z,100.00
2022-07-29T22:51:58.632Z,100.00
2022-07-29T22:54:25.183Z,100.00
2022-07-29T22:56:52.019Z,100.00
2022-07-29T22:59:18.621Z,100.00
2022-07-29T23:01:45.207Z,100.00
2022-07-29T23:04:11.915Z,100.00
2022-07-29T23:06:38.529Z,100.00
2022-07-29T23:09:05.165Z,100.00
2022-07-29T23:11:31.978Z,100.00
2022-07-29T23:13:58.522Z,100.00
2022-07-29T23:16:26.110Z,100.00
2022-07-29T23:18:53.432Z,100.00
2022-07-29T23:21:20.976Z,100.00
2022-07-29T23:23:48.644Z,100.00
2022-07-29T23:26:17.116Z,100.00
2022-07-29T23:28:45.001Z,100.00
2022-07-29T23:31:11.994Z,100.00
2022-07-29T23:33:38.563Z,100.00
2022-07-29T23:36:05.258Z,100.00
2022-07-29T23:38:32.033Z,100.00
2022-07-29T23:40:59.156Z,100.00
2022-07-29T23:43:25.964Z,100.00
2022-07-29T23:45:53.674Z,100.00
2022-07-29T23:48:20.912Z,100.00
2022-07-29T23:50:47.654Z,100.00
2022-07-29T23:53:14.387Z,100.00
2022-07-29T23:55:41.888Z,100.00
2022-07-29T23:58:08.467Z,100.00
